WetterOnline ( https://www.wetteronline.ch )

Wetter aktuell Goseck

Aktuelles Wetter: Osterfeld (246m)

6-stündlich | Neueste Meldungen
Ortszeit Temperatur Wetter
Mi, 28.10. 19:00 9.5° C wolkenlos
Mi, 28.10. 13:00 12.0° C bedeckt
Mi, 28.10. 7:00 8.0° C wolkig
Mi, 28.10. 1:00 7.8° C wolkig
Di, 27.10. 19:00 8.5° C wolkig
Di, 27.10. 13:00 10.9° C bewölkt
Di, 27.10. 7:00 7.6° C leicht bewölkt
Di, 27.10. 1:00 8.1° C bedeckt
Ortszeit Temperatur Wetter
Mi, 28.10. 20:00 9.4° C bewölkt
Mi, 28.10. 19:50 9.4° C bewölkt
Mi, 28.10. 19:40 9.5° C wolkig
Mi, 28.10. 19:30 9.7° C wolkenlos
Mi, 28.10. 19:20 9.7° C wolkenlos
Mi, 28.10. 19:10 9.8° C wolkenlos
Mi, 28.10. 19:00 9.5° C wolkenlos
Mi, 28.10. 18:30 9.8° C fast wolkenlos
Mi, 28.10. 18:00 10.0° C wolkig
Mi, 28.10. 17:30 10.1° C bewölkt
Mi, 28.10. 17:00 10.6° C bewölkt
Ortszeit Relative Feuchte Sichtweite
Mi, 28.10. 19:00 89% 11 km
Mi, 28.10. 13:00 74% 11 km
Mi, 28.10. 7:00 87% 11 km
Mi, 28.10. 1:00 79% 11 km
Di, 27.10. 19:00 78% 11 km
Di, 27.10. 13:00 68% 11 km
Di, 27.10. 7:00 83% 11 km
Di, 27.10. 1:00 81% 11 km
Ortszeit Relative Feuchte Sichtweite
Mi, 28.10. 20:00 85% 11 km
Mi, 28.10. 19:50 85% -
Mi, 28.10. 19:40 85% -
Mi, 28.10. 19:30 84% 11 km
Mi, 28.10. 19:20 84% -
Mi, 28.10. 19:10 85% -
Mi, 28.10. 19:00 89% 11 km
Mi, 28.10. 18:30 89% 11 km
Mi, 28.10. 18:00 93% 11 km
Mi, 28.10. 17:30 94% 11 km
Mi, 28.10. 17:00 92% 11 km
Ortszeit Niederschlagsmenge Niederschlagsart
Mi, 28.10. 19:00 0.7 l/m2 in 12 Std. Regen
Mi, 28.10. 13:00 0.1 l/m2 in 6 Std. -
Mi, 28.10. 7:00 0.1 l/m2 in 12 Std. Regen
Mi, 28.10. 1:00 0.0 l/m2 in 6 Std. -
Di, 27.10. 19:00 0.0 l/m2 in 12 Std. -
Di, 27.10. 13:00 0.0 l/m2 in 6 Std. -
Di, 27.10. 7:00 0.0 l/m2 in 12 Std. -
Di, 27.10. 1:00 0.0 l/m2 in 6 Std. -
Ortszeit Niederschlagsmenge Niederschlagsart
Mi, 28.10. 20:00 0.0 l/m2 in 1 Std. -
Mi, 28.10. 19:50 keine Meldung -
Mi, 28.10. 19:40 keine Meldung -
Mi, 28.10. 19:30 0.0 l/m2 in 1 Std. -
Mi, 28.10. 19:20 keine Meldung -
Mi, 28.10. 19:10 keine Meldung -
Mi, 28.10. 19:00 0.0 l/m2 in 1 Std. Regen
Mi, 28.10. 18:30 0.0 l/m2 in 1 Std. -
Mi, 28.10. 18:00 0.3 l/m2 in 1 Std. Regen
Mi, 28.10. 17:30 0.3 l/m2 in 1 Std. -
Mi, 28.10. 17:00 0.3 l/m2 in 1 Std. Regen
Ortszeit Stärke Spitze Richtung
km/h Bft. km/h Grad Sektor
Mi, 28.10. 19:00 13 3 31 200° S
Mi, 28.10. 13:00 17 3 39 190° S
Mi, 28.10. 7:00 20 4 43 190° S
Mi, 28.10. 1:00 18 3 32 180° S
Di, 27.10. 19:00 15 3 39 180° S
Di, 27.10. 13:00 20 4 44 200° S
Di, 27.10. 7:00 17 3 24 180° S
Di, 27.10. 1:00 9 2 26 210° SW
Ortszeit Stärke Spitze Richtung
km/h Bft. km/h Grad Sektor
Mi, 28.10. 20:00 14 3 25 200° S
Mi, 28.10. 19:50 14 3 - 200° S
Mi, 28.10. 19:40 14 3 - 200° S
Mi, 28.10. 19:30 18 3 25 200° S
Mi, 28.10. 19:20 18 3 - 200° S
Mi, 28.10. 19:10 14 3 - 210° SW
Mi, 28.10. 19:00 13 3 22 200° S
Mi, 28.10. 18:30 13 3 22 210° SW
Mi, 28.10. 18:00 14 3 22 200° S
Mi, 28.10. 17:30 11 2 20 200° S
Mi, 28.10. 17:00 18 3 29 200° S
Ortszeit Untergrenze Bedeckung Gattung
total tief tief mittel hoch
Mi, 28.10. 19:00 - 0/8 0/8 - - -
Mi, 28.10. 13:00 720 m 8/8 8/8 - - -
Mi, 28.10. 7:00 930 m 6/8 6/8 - - -
Mi, 28.10. 1:00 7500 m 7/8 0/8 - - -
Di, 27.10. 19:00 7500 m 7/8 0/8 - - -
Di, 27.10. 13:00 840 m 8/8 5/8 - - -
Di, 27.10. 7:00 4800 m 4/8 4/8 - - -
Di, 27.10. 1:00 4500 m 8/8 8/8 - - -
Ortszeit Bedeckungsgrad in Achtel und Wolkenuntergrenze
Mi, 28.10. 20:00 7(4200m)
Mi, 28.10. 19:50 7(4200m)
Mi, 28.10. 19:40 5(4200m)
Mi, 28.10. 19:30 1(4200m)
Mi, 28.10. 19:20 keine Wolken
Mi, 28.10. 19:10 keine Wolken
Mi, 28.10. 19:00 keine Wolken
Mi, 28.10. 18:30 1(7200m)
Mi, 28.10. 18:00 5(6900m) 7(8100m)
Mi, 28.10. 17:30 1(1440m) 6(2700m) 7(8100m)
Mi, 28.10. 17:00 3(810m) 5(1140m) 7(1410m)
Ortszeit Luftdruck NN (hPa) Tendenz (hPa in 3 Std.)
Mi, 28.10. 19:00 1013 + 1,0
Mi, 28.10. 13:00 1011 + 0,4
Mi, 28.10. 7:00 1009 + 0,6
Mi, 28.10. 1:00 1010 - 0,9
Di, 27.10. 19:00 1011 + 0,6
Di, 27.10. 13:00 1010 + 1,0
Di, 27.10. 7:00 1009 + 0,7
Di, 27.10. 1:00 1007 + 0,1
Ortszeit Luftdruck NN (hPa) Tendenz (hPa in 3 Std.)
Mi, 28.10. 20:00 1013 + 0,8
Mi, 28.10. 19:50 1013 keine Meldung
Mi, 28.10. 19:40 1013 keine Meldung
Mi, 28.10. 19:30 1013 + 1,1
Mi, 28.10. 19:20 1013 keine Meldung
Mi, 28.10. 19:10 1013 keine Meldung
Mi, 28.10. 19:00 1013 + 1,0
Mi, 28.10. 18:30 1013 + 1,0
Mi, 28.10. 18:00 1012 + 0,7
Mi, 28.10. 17:30 1012 + 0,9
Mi, 28.10. 17:00 1012 + 0,5
Ortszeit Schneehöhe (cm)
Mi, 28.10. 19:00 0
Mi, 28.10. 13:00 0
Mi, 28.10. 7:00 0
Mi, 28.10. 1:00 0
Di, 27.10. 19:00 0
Di, 27.10. 13:00 0
Di, 27.10. 7:00 0
Di, 27.10. 1:00 0
Ortszeit Schneehöhe (cm)
Mi, 28.10. 20:00 0
Mi, 28.10. 19:50 0
Mi, 28.10. 19:40 0
Mi, 28.10. 19:30 0
Mi, 28.10. 19:20 0
Mi, 28.10. 19:10 0
Mi, 28.10. 19:00 0
Mi, 28.10. 18:30 0
Mi, 28.10. 18:00 0
Mi, 28.10. 17:30 0
Mi, 28.10. 17:00 0
Link zu dieser Seite / Seite empfehlen

Das Wetter in ...